首页
METAR-TAF:

METAR-TAF

机场 :

馬塔烏圖機場

瓦利斯, 法国

纬度: 13-14S, 经度: 176-10W, 海拔: 23米

当前天气观测

该预报发布于24分钟前的23:00 UTC
风速6节,风向
温度 29°C
湿度 89%
气压 1010 hPa
能见度10公里或以上
少量云层高于1400英尺
散云层高于7600英尺
多云层高于23000英尺

METAR: NLWW 262300Z 08006KT 9999 FEW014 SCT076 BKN230 29/27 Q1010 TEMPO 4000 +SHRA BKN010 SCT020CB

时间: 11:24 (23:24 UTC)

预报

该预报发布于6小时和24分钟前的17:00 UTC
预报有效从26日的 18点(UTC)到 27日的 18点(UTC)
风速8节,风向北转东北
能见度10公里或以上
散云层高于1000英尺
散云层高于2500英尺
短暂存在
从 26日的 18点(UTC)到 26日的 24点(UTC)
能見度: 4000
多云层高于800英尺
散云层高于2000英尺, 积雨云.
雷暴, 雨
短暂存在
从 27日的 00点(UTC)到 27日的 09点(UTC)
风速15节,风向北转东北,有时为25节阵风
能見度: 1500
多云层高于500英尺
多云层高于2000英尺, 积雨云.
雷暴, 雨

TAF: NLWW 261700Z 2618/2718 02008KT 9999 SCT010 SCT025 TEMPO 2618/2624 4000 TSRA BKN008 SCT020CB TEMPO 2700/2709 02015G25KT 1500 TSRA BKN005 BKN020CB

超过4000个机场的气象观测和天气预报(METAR&TAF报告)。

可查询的气象台以黄色和红色小点在地图上表示。

将鼠标移到小点上方,可查看气象台名称。

然后点击查看天气观测和预报。

如需切换地图:点击带黑十字的绿色按钮放大地图;点击带横线的绿色按钮缩小地图;或者点击绿色箭头查看邻近地区的地图。


METAR-TAF: